createdAt,value
2022-12-13T00:01:47.617Z,-10.00
2022-12-13T00:04:15.910Z,-10.10
2022-12-13T00:06:44.549Z,-10.20
2022-12-13T00:09:16.082Z,-10.30
2022-12-13T00:11:44.469Z,-10.30
2022-12-13T00:14:14.527Z,-10.40
2022-12-13T00:16:45.867Z,-10.50
2022-12-13T00:19:14.468Z,-10.50
2022-12-13T00:21:42.633Z,-10.50
2022-12-13T00:24:10.683Z,-10.50
2022-12-13T00:26:40.589Z,-10.50
2022-12-13T00:29:09.574Z,-10.60
2022-12-13T00:34:26.425Z,-10.70
2022-12-13T00:36:55.174Z,-10.80
2022-12-13T00:39:23.280Z,-10.90
2022-12-13T00:41:53.548Z,-10.90
2022-12-13T00:44:21.631Z,-11.00
2022-12-13T00:46:51.649Z,-11.00
2022-12-13T00:49:19.746Z,-11.10
2022-12-13T00:51:49.414Z,-11.10
2022-12-13T00:54:17.573Z,-11.20
2022-12-13T00:56:45.701Z,-11.30
2022-12-13T00:59:16.277Z,-11.30
2022-12-13T01:01:44.661Z,-11.40
2022-12-13T01:04:13.099Z,-11.40
2022-12-13T01:06:43.232Z,-11.40
2022-12-13T01:09:17.167Z,-11.40
2022-12-13T01:11:46.203Z,-11.50
2022-12-13T01:14:16.175Z,-11.40
2022-12-13T01:16:44.501Z,-11.50
2022-12-13T01:19:12.711Z,-11.50
2022-12-13T01:21:40.948Z,-11.50
2022-12-13T01:24:09.327Z,-11.60
2022-12-13T01:26:37.360Z,-11.70
2022-12-13T01:29:05.971Z,-11.80
2022-12-13T01:31:37.476Z,-11.80
2022-12-13T01:34:10.514Z,-11.80
2022-12-13T01:36:39.719Z,-11.90
2022-12-13T01:39:15.006Z,-11.90
2022-12-13T01:41:45.607Z,-11.90
2022-12-13T01:45:06.183Z,-12.00
2022-12-13T01:47:41.901Z,-12.10
2022-12-13T01:50:13.584Z,-12.10
2022-12-13T01:52:42.938Z,-12.10
2022-12-13T01:55:13.394Z,-12.10
2022-12-13T01:57:45.835Z,-12.00
2022-12-13T02:00:16.327Z,-12.00
2022-12-13T02:02:47.619Z,-12.00
2022-12-13T02:05:22.414Z,-12.10
2022-12-13T02:07:51.501Z,-12.20
2022-12-13T02:10:20.144Z,-12.20
2022-12-13T02:12:52.167Z,-12.30
2022-12-13T02:15:21.931Z,-12.30
2022-12-13T02:18:13.803Z,-12.30
2022-12-13T02:21:14.931Z,-12.40
2022-12-13T02:24:28.776Z,-12.50
2022-12-13T02:27:30.213Z,-12.60
2022-12-13T02:30:20.831Z,-12.70
2022-12-13T02:33:05.892Z,-12.70
2022-12-13T02:35:40.426Z,-12.70
2022-12-13T02:38:20.067Z,-12.70
2022-12-13T02:41:00.843Z,-12.60
2022-12-13T02:43:34.070Z,-12.60
2022-12-13T02:46:06.419Z,-12.60
2022-12-13T02:48:38.339Z,-12.60
2022-12-13T02:51:08.019Z,-12.60
2022-12-13T02:53:37.867Z,-12.70
2022-12-13T02:56:06.361Z,-12.70
2022-12-13T02:58:38.744Z,-12.80
2022-12-13T03:01:28.913Z,-12.90
2022-12-13T03:04:05.679Z,-12.90
2022-12-13T03:06:46.409Z,-13.00
2022-12-13T03:09:28.132Z,-13.00
2022-12-13T03:12:40.741Z,-13.00
2022-12-13T03:15:16.406Z,-13.00
2022-12-13T03:17:51.923Z,-13.00
2022-12-13T03:20:25.363Z,-13.10
2022-12-13T03:22:53.722Z,-13.20
2022-12-13T03:25:31.377Z,-13.20
2022-12-13T03:28:02.133Z,-13.20
2022-12-13T03:30:31.318Z,-13.30
2022-12-13T03:33:01.447Z,-13.30
2022-12-13T03:35:35.031Z,-13.30
2022-12-13T03:38:23.062Z,-13.30
2022-12-13T03:40:53.898Z,-13.30
2022-12-13T03:43:23.060Z,-13.30
2022-12-13T03:45:52.252Z,-13.30
2022-12-13T03:48:23.627Z,-13.30
2022-12-13T03:50:53.888Z,-13.40
2022-12-13T03:53:33.320Z,-13.40
2022-12-13T03:56:04.368Z,-13.40
2022-12-13T03:58:35.349Z,-13.40
2022-12-13T04:01:10.950Z,-13.40
2022-12-13T04:03:42.015Z,-13.40
2022-12-13T04:06:10.645Z,-13.40
2022-12-13T04:08:40.130Z,-13.40
2022-12-13T04:11:22.798Z,-13.40
2022-12-13T04:13:50.889Z,-13.40
2022-12-13T04:16:18.971Z,-13.50
2022-12-13T04:18:48.437Z,-13.60
2022-12-13T04:21:16.555Z,-13.60
2022-12-13T04:23:44.782Z,-13.60
2022-12-13T04:26:13.090Z,-13.60
2022-12-13T04:28:41.131Z,-13.50
2022-12-13T04:31:09.249Z,-13.50
2022-12-13T04:33:39.635Z,-13.50
2022-12-13T04:36:10.038Z,-13.40
2022-12-13T04:38:38.049Z,-13.50
2022-12-13T04:41:14.250Z,-13.50
2022-12-13T04:43:42.313Z,-13.60
2022-12-13T04:46:10.420Z,-13.50
2022-12-13T04:48:38.547Z,-13.60
2022-12-13T04:51:07.196Z,-13.50
2022-12-13T04:53:36.852Z,-13.60
2022-12-13T04:56:05.877Z,-13.60
2022-12-13T04:58:34.103Z,-13.60
2022-12-13T05:01:02.188Z,-13.70
2022-12-13T05:03:30.365Z,-13.70
2022-12-13T05:05:58.376Z,-13.80
2022-12-13T05:08:26.460Z,-13.80
2022-12-13T05:10:57.061Z,-13.80
2022-12-13T05:13:25.076Z,-13.80
2022-12-13T05:15:56.582Z,-13.80
2022-12-13T05:18:24.601Z,-13.80
2022-12-13T05:20:54.158Z,-13.90
2022-12-13T05:23:25.267Z,-13.90
2022-12-13T05:25:53.371Z,-13.90
2022-12-13T05:28:27.541Z,-13.90
2022-12-13T05:30:58.553Z,-13.90
2022-12-13T05:33:27.355Z,-13.80
2022-12-13T05:36:00.507Z,-13.80
2022-12-13T05:38:30.145Z,-13.80
2022-12-13T05:40:58.333Z,-13.70
2022-12-13T05:43:41.936Z,-13.70
2022-12-13T05:46:12.226Z,-13.70
2022-12-13T05:48:40.592Z,-13.60
2022-12-13T05:51:09.909Z,-13.60
2022-12-13T05:53:40.560Z,-13.60
2022-12-13T05:56:09.034Z,-13.60
2022-12-13T05:58:39.965Z,-13.60
2022-12-13T06:01:10.390Z,-13.70
2022-12-13T06:03:38.787Z,-13.70
2022-12-13T06:06:08.585Z,-13.90
2022-12-13T06:08:37.145Z,-13.90
2022-12-13T06:11:10.725Z,-13.90
2022-12-13T06:13:43.248Z,-14.00
2022-12-13T06:16:23.272Z,-14.00
2022-12-13T06:19:03.658Z,-14.00
2022-12-13T06:21:43.755Z,-14.00
2022-12-13T06:24:15.348Z,-14.00
2022-12-13T06:26:45.137Z,-13.90
2022-12-13T06:29:22.746Z,-14.00
2022-12-13T06:32:02.370Z,-13.90
2022-12-13T06:34:33.221Z,-14.00
2022-12-13T06:37:02.792Z,-14.00
2022-12-13T06:39:32.388Z,-14.00
2022-12-13T06:42:02.812Z,-14.00
2022-12-13T06:44:32.200Z,-14.00
2022-12-13T06:47:11.164Z,-14.00
2022-12-13T06:49:43.396Z,-14.00
2022-12-13T06:52:13.280Z,-14.00
2022-12-13T06:54:41.675Z,-14.10
2022-12-13T06:57:10.329Z,-14.00
2022-12-13T06:59:40.574Z,-14.00
2022-12-13T07:02:15.488Z,-14.00
2022-12-13T07:04:55.098Z,-14.00
2022-12-13T07:07:23.447Z,-13.90
2022-12-13T07:09:51.594Z,-13.90
2022-12-13T07:12:21.053Z,-13.90
2022-12-13T07:14:50.551Z,-14.00
2022-12-13T07:17:32.840Z,-14.00
2022-12-13T07:20:04.673Z,-14.10
2022-12-13T07:22:34.738Z,-14.10
2022-12-13T07:25:04.839Z,-14.10
2022-12-13T07:27:33.114Z,-14.10
2022-12-13T07:30:03.547Z,-14.00
2022-12-13T07:32:31.601Z,-14.00
2022-12-13T07:34:59.604Z,-14.00
2022-12-13T07:37:30.323Z,-14.00
2022-12-13T07:40:03.916Z,-13.90
2022-12-13T07:42:33.031Z,-13.90
2022-12-13T07:45:02.505Z,-13.80
2022-12-13T07:47:31.198Z,-13.80
2022-12-13T07:49:59.655Z,-13.80
2022-12-13T07:52:29.789Z,-13.70
2022-12-13T07:54:57.756Z,-13.60
2022-12-13T07:57:25.828Z,-13.50
2022-12-13T07:59:53.910Z,-13.50
2022-12-13T08:02:23.404Z,-13.40
2022-12-13T08:04:54.765Z,-13.30
2022-12-13T08:07:23.996Z,-13.20
2022-12-13T08:09:53.283Z,-13.10
2022-12-13T08:12:22.930Z,-13.00
2022-12-13T08:14:53.042Z,-12.90
2022-12-13T08:17:23.381Z,-12.80
2022-12-13T08:19:51.376Z,-12.70
2022-12-13T08:22:23.712Z,-12.60
2022-12-13T08:24:52.416Z,-12.40
2022-12-13T08:27:20.426Z,-12.30
2022-12-13T08:29:48.395Z,-12.20
2022-12-13T08:32:16.465Z,-12.00
2022-12-13T08:34:46.545Z,-11.90
2022-12-13T08:37:14.971Z,-11.80
2022-12-13T08:39:44.483Z,-11.60
2022-12-13T08:42:18.211Z,-11.40
2022-12-13T08:44:48.482Z,-11.10
2022-12-13T08:47:24.519Z,-10.70
2022-12-13T08:50:02.622Z,-10.40
2022-12-13T08:52:31.742Z,-10.00
2022-12-13T08:54:59.755Z,-9.70
2022-12-13T08:57:27.700Z,-9.40
2022-12-13T08:59:55.677Z,-9.20
2022-12-13T09:02:23.672Z,-9.00
2022-12-13T09:04:51.991Z,-8.50
2022-12-13T09:07:21.421Z,-7.80
2022-12-13T09:09:54.957Z,-7.60
2022-12-13T09:12:30.066Z,-7.60
2022-12-13T09:15:01.651Z,-7.50
2022-12-13T09:17:36.676Z,-7.40
2022-12-13T09:20:28.931Z,-7.30
2022-12-13T09:23:02.157Z,-7.30
2022-12-13T09:25:36.607Z,-7.20
2022-12-13T09:28:06.793Z,-7.20
2022-12-13T09:30:34.877Z,-7.10
2022-12-13T09:33:18.128Z,-7.00
2022-12-13T09:35:51.936Z,-6.80
2022-12-13T09:38:22.159Z,-6.70
2022-12-13T09:40:58.862Z,-6.60
2022-12-13T09:43:33.861Z,-6.50
2022-12-13T09:46:23.228Z,-6.20
2022-12-13T09:49:01.679Z,-5.90
2022-12-13T09:51:39.644Z,-5.60
2022-12-13T09:54:19.616Z,-5.30
2022-12-13T09:56:50.898Z,-4.60
2022-12-13T09:59:24.987Z,-3.60
2022-12-13T10:01:54.517Z,-2.20
2022-12-13T10:04:23.037Z,-0.90
2022-12-13T10:06:54.240Z,0.30
2022-12-13T10:09:24.146Z,1.40
2022-12-13T10:11:54.185Z,2.50
2022-12-13T10:14:28.699Z,3.60
2022-12-13T10:17:01.180Z,4.60
2022-12-13T10:19:34.721Z,5.50
2022-12-13T10:22:04.385Z,6.40
2022-12-13T10:24:51.984Z,7.30
2022-12-13T10:27:22.427Z,8.20
2022-12-13T10:30:11.833Z,8.80
2022-12-13T10:32:54.980Z,9.50
2022-12-13T10:35:26.451Z,10.10
2022-12-13T10:37:55.448Z,10.60
2022-12-13T10:40:33.593Z,11.00
2022-12-13T10:43:24.422Z,11.30
2022-12-13T10:46:00.208Z,11.50
2022-12-13T10:48:39.755Z,11.70
2022-12-13T10:51:09.719Z,11.80
2022-12-13T10:53:47.454Z,11.90
2022-12-13T10:56:22.613Z,11.90
2022-12-13T10:59:15.146Z,11.90
2022-12-13T11:01:45.329Z,11.90
2022-12-13T11:04:27.558Z,11.90
2022-12-13T11:06:57.732Z,11.80
2022-12-13T11:09:28.360Z,11.90
2022-12-13T11:11:59.810Z,11.90
2022-12-13T11:14:32.658Z,11.90
2022-12-13T11:17:08.150Z,11.80
2022-12-13T11:19:40.945Z,11.60
2022-12-13T11:22:10.483Z,11.50
2022-12-13T11:24:42.192Z,11.40
2022-12-13T11:27:29.585Z,11.20
2022-12-13T11:30:20.742Z,11.20
2022-12-13T11:33:15.546Z,11.10
2022-12-13T11:36:00.248Z,10.80
2022-12-13T11:38:33.418Z,10.70
2022-12-13T11:41:11.262Z,10.60
2022-12-13T11:43:45.145Z,10.50
2022-12-13T11:46:23.150Z,10.30
2022-12-13T11:48:57.445Z,10.10
2022-12-13T11:51:28.460Z,9.90
2022-12-13T11:54:00.932Z,9.70
2022-12-13T11:56:34.177Z,9.50
2022-12-13T11:59:28.986Z,9.30
2022-12-13T12:02:07.029Z,8.80
2022-12-13T12:04:51.553Z,8.40
2022-12-13T12:07:33.222Z,7.80
2022-12-13T12:10:13.154Z,7.40
2022-12-13T12:12:46.963Z,6.90
2022-12-13T12:15:26.698Z,6.40
2022-12-13T12:17:56.268Z,6.00
2022-12-13T12:20:44.950Z,5.70
2022-12-13T12:23:20.860Z,5.30
2022-12-13T12:25:53.932Z,5.00
2022-12-13T12:28:30.999Z,4.60
2022-12-13T12:31:09.965Z,4.30
2022-12-13T12:33:47.434Z,4.10
2022-12-13T12:36:33.131Z,3.80
2022-12-13T12:39:20.521Z,3.70
2022-12-13T12:42:10.996Z,3.50
2022-12-13T12:44:48.185Z,3.40
2022-12-13T12:47:57.780Z,3.20
2022-12-13T12:50:31.138Z,3.10
2022-12-13T12:53:08.086Z,3.00
2022-12-13T12:55:49.803Z,2.90
2022-12-13T12:58:27.964Z,2.90
2022-12-13T13:01:05.779Z,2.80
2022-12-13T13:03:38.644Z,2.70
2022-12-13T13:06:13.116Z,2.60
2022-12-13T13:08:51.617Z,2.50
2022-12-13T13:11:25.996Z,2.40
2022-12-13T13:14:06.594Z,2.30
2022-12-13T13:16:40.035Z,2.10
2022-12-13T13:19:43.648Z,2.00
2022-12-13T13:22:32.779Z,1.80
2022-12-13T13:25:32.320Z,1.60
2022-12-13T13:28:06.805Z,1.50
2022-12-13T13:30:36.345Z,1.40
2022-12-13T13:33:04.527Z,1.30
2022-12-13T13:35:50.199Z,1.20
2022-12-13T13:38:52.231Z,1.10
2022-12-13T13:41:53.974Z,1.10
2022-12-13T13:44:58.084Z,1.10
2022-12-13T13:47:38.945Z,1.20
2022-12-13T13:50:42.392Z,1.20
2022-12-13T13:53:44.239Z,1.40
2022-12-13T13:56:35.658Z,1.60
2022-12-13T13:59:50.751Z,1.70
2022-12-13T14:02:58.828Z,1.70
2022-12-13T14:05:57.571Z,1.40
2022-12-13T14:08:43.516Z,0.90
2022-12-13T14:11:35.600Z,0.40
2022-12-13T14:14:38.498Z,-0.10
2022-12-13T14:17:51.828Z,-0.60
2022-12-13T14:20:43.242Z,-1.10
2022-12-13T14:23:21.802Z,-1.50
2022-12-13T14:26:07.876Z,-1.90
2022-12-13T14:28:46.108Z,-2.20
2022-12-13T14:31:21.805Z,-2.60
2022-12-13T14:33:52.147Z,-2.80
2022-12-13T14:36:28.668Z,-3.10
2022-12-13T14:39:02.156Z,-3.40
2022-12-13T14:41:31.588Z,-3.70
2022-12-13T14:44:15.048Z,-3.90
2022-12-13T14:46:50.923Z,-4.20
2022-12-13T14:49:19.874Z,-4.40
2022-12-13T14:51:52.548Z,-4.60
2022-12-13T14:54:26.077Z,-4.70
2022-12-13T14:57:00.917Z,-4.90
2022-12-13T14:59:29.823Z,-5.10
2022-12-13T15:02:02.542Z,-5.30
2022-12-13T15:04:32.546Z,-5.50
2022-12-13T15:07:07.717Z,-5.70
2022-12-13T15:09:38.940Z,-5.80
2022-12-13T15:12:24.001Z,-6.00
2022-12-13T15:15:02.736Z,-6.20
2022-12-13T15:17:33.899Z,-6.40
2022-12-13T15:20:24.550Z,-6.60
2022-12-13T15:23:06.118Z,-6.90
2022-12-13T15:25:37.306Z,-7.00
2022-12-13T15:28:07.952Z,-7.20
2022-12-13T15:30:37.115Z,-7.30
2022-12-13T15:33:07.829Z,-7.40
2022-12-13T15:35:37.923Z,-7.50
2022-12-13T15:38:06.057Z,-7.60
2022-12-13T15:40:34.929Z,-7.60
2022-12-13T15:43:03.075Z,-7.60
2022-12-13T15:45:37.067Z,-7.70
2022-12-13T15:48:06.229Z,-7.80
2022-12-13T15:50:37.106Z,-7.80
2022-12-13T15:53:07.958Z,-7.90
2022-12-13T15:55:37.786Z,-7.90
2022-12-13T15:58:26.825Z,-8.00
2022-12-13T16:00:56.412Z,-8.10
2022-12-13T16:03:27.032Z,-8.20
2022-12-13T16:05:57.153Z,-8.40
2022-12-13T16:08:28.792Z,-8.50
2022-12-13T16:10:58.278Z,-8.60
2022-12-13T16:13:28.086Z,-8.60
2022-12-13T16:16:00.121Z,-8.70
2022-12-13T16:18:45.706Z,-8.70
2022-12-13T16:21:14.338Z,-8.90
2022-12-13T16:23:48.340Z,-8.90
2022-12-13T16:26:23.589Z,-9.00
2022-12-13T16:28:51.745Z,-9.10
2022-12-13T16:31:23.277Z,-9.20
2022-12-13T16:33:51.536Z,-9.30
2022-12-13T16:36:19.627Z,-9.40
2022-12-13T16:38:47.776Z,-9.40
2022-12-13T16:41:16.331Z,-9.40
2022-12-13T16:43:52.277Z,-9.50
2022-12-13T16:47:12.142Z,-9.50
2022-12-13T16:49:20.231Z,-9.60
2022-12-13T16:51:49.207Z,-9.70
2022-12-13T16:54:18.237Z,-9.80
2022-12-13T16:56:46.403Z,-9.90
2022-12-13T16:59:15.581Z,-10.00
2022-12-13T17:01:45.899Z,-10.10
2022-12-13T17:04:19.966Z,-10.10
2022-12-13T17:06:50.908Z,-10.20
2022-12-13T17:09:23.005Z,-10.30
2022-12-13T17:11:53.673Z,-10.30
2022-12-13T17:14:21.705Z,-10.40
2022-12-13T17:16:51.139Z,-10.30
2022-12-13T17:19:19.720Z,-10.40
2022-12-13T17:21:49.199Z,-10.40
2022-12-13T17:24:17.486Z,-10.40
2022-12-13T17:26:54.738Z,-10.40
2022-12-13T17:29:24.919Z,-10.50
2022-12-13T17:31:54.485Z,-10.50
2022-12-13T17:34:22.832Z,-10.60
2022-12-13T17:36:50.911Z,-10.60
2022-12-13T17:39:19.137Z,-10.60
2022-12-13T17:41:54.597Z,-10.60
2022-12-13T17:44:24.911Z,-10.70
2022-12-13T17:46:55.649Z,-10.80
2022-12-13T17:49:24.336Z,-10.90
2022-12-13T17:51:54.090Z,-11.00
2022-12-13T17:54:23.544Z,-11.10
2022-12-13T17:56:52.314Z,-11.20
2022-12-13T17:59:20.881Z,-11.30
2022-12-13T18:01:49.184Z,-11.30
2022-12-13T18:04:18.697Z,-11.30
2022-12-13T18:06:46.882Z,-11.30
2022-12-13T18:09:15.195Z,-11.30
2022-12-13T18:11:43.273Z,-11.40
2022-12-13T18:14:11.265Z,-11.40
2022-12-13T18:16:40.864Z,-11.50
2022-12-13T18:19:12.204Z,-11.50
2022-12-13T18:21:43.101Z,-11.50
2022-12-13T18:24:12.284Z,-11.60
2022-12-13T18:26:40.400Z,-11.70
2022-12-13T18:29:08.596Z,-11.70
2022-12-13T18:31:36.810Z,-11.80
2022-12-13T18:34:05.074Z,-11.80
2022-12-13T18:36:33.088Z,-11.80
2022-12-13T18:39:02.947Z,-11.80
2022-12-13T18:41:31.693Z,-11.80
2022-12-13T18:44:01.778Z,-11.80
2022-12-13T18:46:31.617Z,-11.80
2022-12-13T18:49:00.387Z,-11.80
2022-12-13T18:51:28.856Z,-11.80
2022-12-13T18:53:57.367Z,-11.80
2022-12-13T18:56:26.867Z,-11.90
2022-12-13T18:58:55.490Z,-11.90
2022-12-13T19:01:26.882Z,-11.90
2022-12-13T19:03:55.737Z,-12.00
2022-12-13T19:06:25.787Z,-11.90
2022-12-13T19:08:56.196Z,-11.90
2022-12-13T19:11:29.352Z,-11.90
2022-12-13T19:13:57.717Z,-11.80
2022-12-13T19:16:27.141Z,-11.70
2022-12-13T19:18:55.528Z,-11.70
2022-12-13T19:21:23.858Z,-11.80
2022-12-13T19:23:57.373Z,-11.70
2022-12-13T19:26:28.596Z,-11.70
2022-12-13T19:28:58.939Z,-11.70
2022-12-13T19:31:31.843Z,-11.70
2022-12-13T19:34:01.704Z,-11.60
2022-12-13T19:36:29.981Z,-11.70
2022-12-13T19:38:58.010Z,-11.70
2022-12-13T19:41:28.019Z,-11.70
2022-12-13T19:43:56.056Z,-11.60
2022-12-13T19:46:24.599Z,-11.60
2022-12-13T19:48:52.604Z,-11.60
2022-12-13T19:51:22.676Z,-11.60
2022-12-13T19:53:50.919Z,-11.60
2022-12-13T19:56:20.575Z,-11.60
2022-12-13T19:58:51.080Z,-11.70
2022-12-13T20:01:19.372Z,-11.70
2022-12-13T20:03:47.995Z,-11.70
2022-12-13T20:06:18.044Z,-11.70
2022-12-13T20:08:46.271Z,-11.70
2022-12-13T20:11:15.714Z,-11.70
2022-12-13T20:13:44.172Z,-11.70
2022-12-13T20:16:18.979Z,-11.80
2022-12-13T20:18:47.987Z,-11.80
2022-12-13T20:21:16.598Z,-11.90
2022-12-13T20:23:49.004Z,-11.90
2022-12-13T20:26:20.065Z,-11.80
2022-12-13T20:28:48.377Z,-11.80
2022-12-13T20:31:19.748Z,-11.80
2022-12-13T20:33:48.373Z,-11.80
2022-12-13T20:36:24.598Z,-11.80
2022-12-13T20:38:55.630Z,-11.80
2022-12-13T20:41:26.028Z,-11.70
2022-12-13T20:43:54.967Z,-11.70
2022-12-13T20:46:25.787Z,-11.70
2022-12-13T20:48:55.090Z,-11.70
2022-12-13T20:51:25.494Z,-11.70
2022-12-13T20:53:54.792Z,-11.60
2022-12-13T20:56:24.708Z,-11.60
2022-12-13T20:58:53.707Z,-11.60
2022-12-13T21:01:25.304Z,-11.60
2022-12-13T21:03:55.288Z,-11.60
2022-12-13T21:06:24.099Z,-11.60
2022-12-13T21:08:52.490Z,-11.50
2022-12-13T21:11:27.774Z,-11.50
2022-12-13T21:14:02.469Z,-11.50
2022-12-13T21:16:38.593Z,-11.50
2022-12-13T21:19:08.666Z,-11.40
2022-12-13T21:21:39.180Z,-11.40
2022-12-13T21:24:10.178Z,-11.40
2022-12-13T21:26:38.332Z,-11.40
2022-12-13T21:29:10.599Z,-11.30
2022-12-13T21:31:41.534Z,-11.30
2022-12-13T21:34:10.395Z,-11.30
2022-12-13T21:36:40.161Z,-11.30
2022-12-13T21:39:12.411Z,-11.40
2022-12-13T21:41:41.128Z,-11.40
2022-12-13T21:44:10.858Z,-11.40
2022-12-13T21:47:22.303Z,-11.30
2022-12-13T21:49:28.917Z,-11.30
2022-12-13T21:51:56.986Z,-11.30
2022-12-13T21:54:25.098Z,-11.30
2022-12-13T21:57:10.490Z,-11.30
2022-12-13T21:59:38.832Z,-11.30
2022-12-13T22:02:16.195Z,-11.30
2022-12-13T22:04:46.125Z,-11.20
2022-12-13T22:07:17.368Z,-11.20
2022-12-13T22:09:46.544Z,-11.20
2022-12-13T22:12:21.670Z,-11.20
2022-12-13T22:14:50.689Z,-11.10
2022-12-13T22:17:29.761Z,-11.10
2022-12-13T22:20:03.648Z,-11.10
2022-12-13T22:22:32.377Z,-11.00
2022-12-13T22:25:03.624Z,-11.00
2022-12-13T22:27:32.033Z,-11.00
2022-12-13T22:30:00.320Z,-11.00
2022-12-13T22:32:31.785Z,-10.90
2022-12-13T22:35:00.117Z,-10.90
2022-12-13T22:37:28.632Z,-10.80
2022-12-13T22:39:58.858Z,-10.70
2022-12-13T22:42:27.248Z,-10.60
2022-12-13T22:44:55.684Z,-10.60
2022-12-13T22:47:23.995Z,-10.50
2022-12-13T22:49:53.670Z,-10.40
2022-12-13T22:52:21.897Z,-10.40
2022-12-13T22:54:50.248Z,-10.30
2022-12-13T22:57:18.488Z,-10.30
2022-12-13T22:59:46.845Z,-10.20
2022-12-13T23:02:15.519Z,-10.20
2022-12-13T23:04:43.855Z,-10.10
2022-12-13T23:07:13.506Z,-10.10
2022-12-13T23:09:41.749Z,-10.00
2022-12-13T23:12:29.385Z,-10.00
2022-12-13T23:14:57.572Z,-9.90
2022-12-13T23:17:25.786Z,-9.80
2022-12-13T23:19:54.173Z,-9.80
2022-12-13T23:22:25.217Z,-9.80
2022-12-13T23:24:54.419Z,-9.70
2022-12-13T23:27:24.743Z,-9.70
2022-12-13T23:29:53.179Z,-9.60
2022-12-13T23:32:21.294Z,-9.60
2022-12-13T23:34:49.442Z,-9.50
2022-12-13T23:37:17.581Z,-9.50
2022-12-13T23:39:48.049Z,-9.50
2022-12-13T23:42:16.208Z,-9.40
2022-12-13T23:44:44.316Z,-9.40
2022-12-13T23:47:12.446Z,-9.30
2022-12-13T23:49:40.476Z,-9.30
2022-12-13T23:52:08.715Z,-9.20
2022-12-13T23:54:36.907Z,-9.20
2022-12-13T23:57:06.442Z,-9.20
2022-12-13T23:59:34.624Z,-9.10
